createdAt,value
2023-04-18T00:00:25.160Z,502.00
2023-04-18T00:01:25.197Z,505.00
2023-04-18T00:02:25.280Z,500.00
2023-04-18T00:03:25.483Z,504.00
2023-04-18T00:04:25.426Z,506.00
2023-04-18T00:05:25.367Z,504.00
2023-04-18T00:06:25.368Z,511.00
2023-04-18T00:07:25.405Z,510.00
2023-04-18T00:08:25.461Z,504.00
2023-04-18T00:09:25.580Z,509.00
2023-04-18T00:10:25.528Z,510.00
2023-04-18T00:11:25.570Z,509.00
2023-04-18T00:12:25.602Z,510.00
2023-04-18T00:13:25.645Z,508.00
2023-04-18T00:14:25.678Z,507.00
2023-04-18T00:15:25.727Z,505.00
2023-04-18T00:16:25.773Z,500.00
2023-04-18T00:17:25.797Z,503.00
2023-04-18T00:18:25.803Z,506.00
2023-04-18T00:19:25.844Z,506.00
2023-04-18T00:20:25.889Z,505.00
2023-04-18T00:21:25.924Z,507.00
2023-04-18T00:22:25.975Z,503.00
2023-04-18T00:23:25.994Z,506.00
2023-04-18T00:24:26.043Z,507.00
2023-04-18T00:25:26.077Z,507.00
2023-04-18T00:26:26.110Z,504.00
2023-04-18T00:27:26.146Z,505.00
2023-04-18T00:28:26.186Z,503.00
2023-04-18T00:29:26.225Z,502.00
2023-04-18T00:30:26.283Z,504.00
2023-04-18T00:31:26.411Z,500.00
2023-04-18T00:32:26.354Z,505.00
2023-04-18T00:33:26.382Z,506.00
2023-04-18T00:34:26.429Z,502.00
2023-04-18T00:35:26.467Z,507.00
2023-04-18T00:36:26.509Z,502.00
2023-04-18T00:37:26.551Z,500.00
2023-04-18T00:38:26.587Z,503.00
2023-04-18T00:39:26.633Z,505.00
2023-04-18T00:40:26.673Z,500.00
2023-04-18T00:41:26.712Z,502.00
2023-04-18T00:42:26.747Z,507.00
2023-04-18T00:43:26.795Z,502.00
2023-04-18T00:44:26.823Z,507.00
2023-04-18T00:45:26.872Z,502.00
2023-04-18T00:46:26.964Z,503.00
2023-04-18T00:47:27.013Z,502.00
2023-04-18T00:48:26.992Z,504.00
2023-04-18T00:49:27.039Z,506.00
2023-04-18T00:50:27.082Z,503.00
2023-04-18T00:51:27.125Z,510.00
2023-04-18T00:52:27.252Z,501.00
2023-04-18T00:53:27.218Z,503.00
2023-04-18T00:54:27.276Z,505.00
2023-04-18T00:55:27.318Z,509.00
2023-04-18T00:56:27.365Z,510.00
2023-04-18T00:57:27.399Z,503.00
2023-04-18T00:58:27.432Z,508.00
2023-04-18T00:59:27.446Z,509.00
2023-04-18T01:00:27.525Z,508.00
2023-04-18T01:01:27.594Z,508.00
2023-04-18T01:02:27.673Z,508.00
2023-04-18T01:03:27.777Z,506.00
2023-04-18T01:04:27.787Z,506.00
2023-04-18T01:05:27.700Z,507.00
2023-04-18T01:06:27.743Z,505.00
2023-04-18T01:07:27.788Z,508.00
2023-04-18T01:08:27.824Z,503.00
2023-04-18T01:09:27.870Z,507.00
2023-04-18T01:10:27.901Z,506.00
2023-04-18T01:11:27.954Z,506.00
2023-04-18T01:12:27.998Z,509.00
2023-04-18T01:13:28.046Z,506.00
2023-04-18T01:14:28.090Z,503.00
2023-04-18T01:15:28.132Z,507.00
2023-04-18T01:16:28.357Z,509.00
2023-04-18T01:17:28.323Z,506.00
2023-04-18T01:18:28.279Z,504.00
2023-04-18T01:19:28.326Z,504.00
2023-04-18T01:20:28.370Z,504.00
2023-04-18T01:21:28.416Z,502.00
2023-04-18T01:22:28.461Z,503.00
2023-04-18T01:23:28.513Z,505.00
2023-04-18T01:24:28.555Z,508.00
2023-04-18T01:25:28.596Z,508.00
2023-04-18T01:26:28.638Z,506.00
2023-04-18T01:27:28.690Z,500.00
2023-04-18T01:28:28.717Z,505.00
2023-04-18T01:29:28.758Z,509.00
2023-04-18T01:30:28.795Z,507.00
2023-04-18T01:31:28.901Z,508.00
2023-04-18T01:32:28.914Z,506.00
2023-04-18T01:33:28.920Z,506.00
2023-04-18T01:34:28.966Z,513.00
2023-04-18T01:35:29.014Z,510.00
2023-04-18T01:36:29.053Z,508.00
2023-04-18T01:37:29.095Z,512.00
2023-04-18T01:38:29.145Z,508.00
2023-04-18T01:39:29.189Z,509.00
2023-04-18T01:40:29.225Z,507.00
2023-04-18T01:41:29.270Z,509.00
2023-04-18T01:42:29.333Z,505.00
2023-04-18T01:43:29.373Z,505.00
2023-04-18T01:44:29.414Z,508.00
2023-04-18T01:45:29.457Z,509.00
2023-04-18T01:46:29.585Z,511.00
2023-04-18T01:47:29.550Z,505.00
2023-04-18T01:48:29.599Z,504.00
2023-04-18T01:49:29.649Z,503.00
2023-04-18T01:50:29.677Z,507.00
2023-04-18T01:51:29.725Z,508.00
2023-04-18T01:52:29.772Z,508.00
2023-04-18T01:53:29.825Z,501.00
2023-04-18T01:54:29.868Z,505.00
2023-04-18T01:55:29.904Z,511.00
2023-04-18T01:56:29.950Z,502.00
2023-04-18T01:57:29.997Z,506.00
2023-04-18T01:58:30.049Z,507.00
2023-04-18T01:59:30.097Z,508.00
2023-04-18T02:00:30.176Z,503.00
2023-04-18T02:01:30.185Z,504.00
2023-04-18T02:02:30.393Z,504.00
2023-04-18T02:03:30.380Z,508.00
2023-04-18T02:04:30.313Z,501.00
2023-04-18T02:05:30.351Z,505.00
2023-04-18T02:06:30.391Z,505.00
2023-04-18T02:07:30.452Z,505.00
2023-04-18T02:08:30.459Z,501.00
2023-04-18T02:09:30.496Z,503.00
2023-04-18T02:10:30.534Z,504.00
2023-04-18T02:11:30.577Z,505.00
2023-04-18T02:12:30.616Z,505.00
2023-04-18T02:13:30.668Z,512.00
2023-04-18T02:14:30.702Z,501.00
2023-04-18T02:15:30.744Z,504.00
2023-04-18T02:16:30.836Z,502.00
2023-04-18T02:17:30.842Z,507.00
2023-04-18T02:18:30.869Z,510.00
2023-04-18T02:19:30.912Z,507.00
2023-04-18T02:20:30.955Z,507.00
2023-04-18T02:21:30.988Z,506.00
2023-04-18T02:22:31.039Z,507.00
2023-04-18T02:23:31.064Z,503.00
2023-04-18T02:24:31.093Z,506.00
2023-04-18T02:25:31.139Z,505.00
2023-04-18T02:26:31.187Z,509.00
2023-04-18T02:27:31.223Z,506.00
2023-04-18T02:28:31.254Z,505.00
2023-04-18T02:29:31.298Z,506.00
2023-04-18T02:30:31.343Z,507.00
2023-04-18T02:31:31.433Z,508.00
2023-04-18T02:32:31.499Z,507.00
2023-04-18T02:33:31.449Z,511.00
2023-04-18T02:34:31.506Z,508.00
2023-04-18T02:35:31.553Z,505.00
2023-04-18T02:36:31.586Z,505.00
2023-04-18T02:37:31.627Z,507.00
2023-04-18T02:38:31.680Z,509.00
2023-04-18T02:39:31.705Z,505.00
2023-04-18T02:40:31.765Z,507.00
2023-04-18T02:41:31.815Z,505.00
2023-04-18T02:42:31.855Z,507.00
2023-04-18T02:43:31.904Z,508.00
2023-04-18T02:44:31.963Z,506.00
2023-04-18T02:45:32.018Z,504.00
2023-04-18T02:46:32.132Z,508.00
2023-04-18T02:47:37.706Z,505.00
2023-04-18T02:48:33.130Z,505.00
2023-04-18T02:49:32.098Z,505.00
2023-04-18T02:50:32.111Z,508.00
2023-04-18T02:51:32.093Z,505.00
2023-04-18T02:52:32.150Z,509.00
2023-04-18T02:53:32.076Z,511.00
2023-04-18T02:54:32.071Z,507.00
2023-04-18T02:55:32.051Z,508.00
2023-04-18T02:56:32.045Z,505.00
2023-04-18T02:57:32.048Z,510.00
2023-04-18T02:58:32.095Z,505.00
2023-04-18T02:59:32.211Z,507.00
2023-04-18T03:00:32.196Z,504.00
2023-04-18T03:01:32.294Z,509.00
2023-04-18T03:02:32.337Z,507.00
2023-04-18T03:03:32.364Z,502.00
2023-04-18T03:04:32.407Z,502.00
2023-04-18T03:05:32.404Z,502.00
2023-04-18T03:06:32.438Z,503.00
2023-04-18T03:07:32.494Z,500.00
2023-04-18T03:08:32.527Z,514.00
2023-04-18T03:09:32.570Z,507.00
2023-04-18T03:10:32.617Z,504.00
2023-04-18T03:11:32.639Z,509.00
2023-04-18T03:12:32.681Z,506.00
2023-04-18T03:13:32.734Z,509.00
2023-04-18T03:14:32.786Z,503.00
2023-04-18T03:15:32.842Z,504.00
2023-04-18T03:16:32.871Z,501.00
2023-04-18T03:17:32.944Z,505.00
2023-04-18T03:18:32.984Z,505.00
2023-04-18T03:19:33.002Z,504.00
2023-04-18T03:20:33.048Z,503.00
2023-04-18T03:21:33.081Z,502.00
2023-04-18T03:22:33.142Z,502.00
2023-04-18T03:23:33.174Z,502.00
2023-04-18T03:24:33.384Z,505.00
2023-04-18T03:25:33.270Z,506.00
2023-04-18T03:26:33.299Z,505.00
2023-04-18T03:27:33.353Z,501.00
2023-04-18T03:28:33.404Z,503.00
2023-04-18T03:29:33.463Z,501.00
2023-04-18T03:30:33.490Z,502.00
2023-04-18T03:31:33.619Z,500.00
2023-04-18T03:32:33.610Z,509.00
2023-04-18T03:33:33.623Z,507.00
2023-04-18T03:34:33.668Z,507.00
2023-04-18T03:35:33.714Z,505.00
2023-04-18T03:36:33.752Z,508.00
2023-04-18T03:37:33.805Z,508.00
2023-04-18T03:38:33.835Z,505.00
2023-04-18T03:39:33.873Z,503.00
2023-04-18T03:40:33.943Z,506.00
2023-04-18T03:41:33.953Z,505.00
2023-04-18T03:42:33.988Z,506.00
2023-04-18T03:43:34.033Z,509.00
2023-04-18T03:44:34.065Z,506.00
2023-04-18T03:45:34.116Z,510.00
2023-04-18T03:46:34.225Z,507.00
2023-04-18T03:47:34.277Z,504.00
2023-04-18T03:48:34.240Z,511.00
2023-04-18T03:49:34.292Z,503.00
2023-04-18T03:50:34.331Z,506.00
2023-04-18T03:51:34.365Z,507.00
2023-04-18T03:52:34.898Z,507.00
2023-04-18T03:53:34.446Z,504.00
2023-04-18T03:54:34.497Z,506.00
2023-04-18T03:55:34.547Z,504.00
2023-04-18T03:56:34.576Z,504.00
2023-04-18T03:57:34.634Z,509.00
2023-04-18T03:58:34.675Z,500.00
2023-04-18T03:59:34.724Z,503.00
2023-04-18T04:00:34.763Z,506.00
2023-04-18T04:01:34.859Z,504.00
2023-04-18T04:02:35.041Z,501.00
2023-04-18T04:03:35.024Z,503.00
2023-04-18T04:04:35.009Z,502.00
2023-04-18T04:05:34.990Z,509.00
2023-04-18T04:06:35.051Z,508.00
2023-04-18T04:07:35.084Z,506.00
2023-04-18T04:08:35.127Z,506.00
2023-04-18T04:09:35.169Z,502.00
2023-04-18T04:10:35.193Z,508.00
2023-04-18T04:11:35.229Z,503.00
2023-04-18T04:12:35.339Z,501.00
2023-04-18T04:13:35.318Z,504.00
2023-04-18T04:14:35.347Z,503.00
2023-04-18T04:15:35.389Z,507.00
2023-04-18T04:16:35.464Z,504.00
2023-04-18T04:17:35.522Z,501.00
2023-04-18T04:18:35.543Z,502.00
2023-04-18T04:19:35.584Z,507.00
2023-04-18T04:20:35.628Z,502.00
2023-04-18T04:21:35.663Z,504.00
2023-04-18T04:22:35.700Z,503.00
2023-04-18T04:23:35.731Z,507.00
2023-04-18T04:24:35.781Z,503.00
2023-04-18T04:25:35.829Z,502.00
2023-04-18T04:26:35.872Z,507.00
2023-04-18T04:27:35.923Z,507.00
2023-04-18T04:28:35.981Z,506.00
2023-04-18T04:29:36.000Z,505.00
2023-04-18T04:30:36.052Z,504.00
2023-04-18T04:31:36.123Z,504.00
2023-04-18T04:32:36.163Z,501.00
2023-04-18T04:33:36.170Z,505.00
2023-04-18T04:34:36.222Z,504.00
2023-04-18T04:35:36.268Z,507.00
2023-04-18T04:36:36.303Z,506.00
2023-04-18T04:37:36.348Z,503.00
2023-04-18T04:38:36.382Z,502.00
2023-04-18T04:39:36.417Z,502.00
2023-04-18T04:40:36.471Z,507.00
2023-04-18T04:41:36.506Z,507.00
2023-04-18T04:42:36.534Z,506.00
2023-04-18T04:43:36.582Z,502.00
2023-04-18T04:44:36.627Z,501.00
2023-04-18T04:45:36.666Z,508.00
2023-04-18T04:46:36.681Z,505.00
2023-04-18T04:47:36.798Z,506.00
2023-04-18T04:48:36.777Z,505.00
2023-04-18T04:49:36.819Z,504.00
2023-04-18T04:50:36.865Z,504.00
2023-04-18T04:51:36.899Z,508.00
2023-04-18T04:52:36.958Z,505.00
2023-04-18T04:53:36.957Z,509.00
2023-04-18T04:54:37.013Z,505.00
2023-04-18T04:55:37.052Z,505.00
2023-04-18T04:56:37.897Z,507.00
2023-04-18T04:57:37.121Z,503.00
2023-04-18T04:58:37.164Z,505.00
2023-04-18T04:59:37.182Z,505.00
2023-04-18T05:00:37.221Z,505.00
2023-04-18T05:01:37.306Z,500.00
2023-04-18T05:02:37.442Z,507.00
2023-04-18T05:03:37.654Z,511.00
2023-04-18T05:04:37.561Z,506.00
2023-04-18T05:05:37.441Z,503.00
2023-04-18T05:06:40.060Z,507.00
2023-04-18T05:07:37.484Z,514.00
2023-04-18T05:08:37.477Z,509.00
2023-04-18T05:09:37.486Z,510.00
2023-04-18T05:10:37.466Z,506.00
2023-04-18T05:11:37.463Z,509.00
2023-04-18T05:12:37.465Z,507.00
2023-04-18T05:13:37.459Z,506.00
2023-04-18T05:14:37.456Z,503.00
2023-04-18T05:15:37.477Z,509.00
2023-04-18T05:16:37.491Z,511.00
2023-04-18T05:17:37.470Z,508.00
2023-04-18T05:18:37.448Z,513.00
2023-04-18T05:19:37.447Z,508.00
2023-04-18T05:20:37.444Z,512.00
2023-04-18T05:21:37.419Z,515.00
2023-04-18T05:22:37.441Z,530.00
2023-04-18T05:23:37.444Z,526.00
2023-04-18T05:24:37.421Z,531.00
2023-04-18T05:25:37.422Z,531.00
2023-04-18T05:26:37.426Z,537.00
2023-04-18T05:27:37.424Z,541.00
2023-04-18T05:28:37.429Z,564.00
2023-04-18T05:29:37.417Z,584.00
2023-04-18T05:30:37.439Z,582.00
2023-04-18T05:31:37.439Z,625.00
2023-04-18T05:32:37.427Z,633.00
2023-04-18T05:33:37.398Z,663.00
2023-04-18T05:34:38.738Z,693.00
2023-04-18T05:35:37.393Z,733.00
2023-04-18T05:36:37.375Z,857.00
2023-04-18T05:37:37.362Z,837.00
2023-04-18T05:38:37.356Z,827.00
2023-04-18T05:39:37.349Z,869.00
2023-04-18T05:40:37.338Z,905.00
2023-04-18T05:41:37.327Z,914.00
2023-04-18T05:42:37.334Z,925.00
2023-04-18T05:43:37.296Z,917.00
2023-04-18T05:44:37.285Z,950.00
2023-04-18T05:45:37.279Z,973.00
2023-04-18T05:46:37.913Z,1012.00
2023-04-18T05:47:37.333Z,1064.00
2023-04-18T05:48:37.235Z,1071.00
2023-04-18T05:49:37.206Z,1071.00
2023-04-18T05:50:37.190Z,1130.00
2023-04-18T05:51:37.163Z,1159.00
2023-04-18T05:52:37.161Z,1163.00
2023-04-18T05:53:37.231Z,1179.00
2023-04-18T05:54:37.919Z,1198.00
2023-04-18T05:55:37.113Z,1219.00
2023-04-18T05:56:37.097Z,1050.00
2023-04-18T05:57:37.109Z,837.00
2023-04-18T05:58:37.143Z,691.00
2023-04-18T05:59:37.168Z,751.00
2023-04-18T06:00:37.199Z,785.00
2023-04-18T06:01:37.257Z,797.00
2023-04-18T06:02:37.386Z,822.00
2023-04-18T06:03:37.609Z,888.00
2023-04-18T06:04:37.602Z,963.00
2023-04-18T06:05:37.499Z,1001.00
2023-04-18T06:06:37.497Z,1024.00
2023-04-18T06:07:37.495Z,1089.00
2023-04-18T06:08:37.536Z,1102.00
2023-04-18T06:09:37.620Z,1103.00
2023-04-18T06:11:37.639Z,1149.00
2023-04-18T06:12:37.659Z,1172.00
2023-04-18T06:13:37.690Z,1205.00
2023-04-18T06:14:37.714Z,1241.00
2023-04-18T06:15:37.749Z,1272.00
2023-04-18T06:16:37.991Z,1291.00
2023-04-18T06:17:37.873Z,1298.00
2023-04-18T06:18:37.804Z,1365.00
2023-04-18T06:19:37.825Z,1399.00
2023-04-18T06:20:37.875Z,1382.00
2023-04-18T06:21:37.854Z,1427.00
2023-04-18T06:22:37.887Z,1456.00
2023-04-18T06:23:37.906Z,1431.00
2023-04-18T06:24:37.917Z,1407.00
2023-04-18T06:25:37.948Z,1381.00
2023-04-18T06:26:37.968Z,1372.00
2023-04-18T06:27:38.004Z,1102.00
2023-04-18T06:28:38.936Z,658.00
2023-04-18T06:29:38.122Z,537.00
2023-04-18T06:30:38.105Z,516.00
2023-04-18T06:31:38.209Z,554.00
2023-04-18T06:32:38.255Z,565.00
2023-04-18T06:33:38.270Z,592.00
2023-04-18T06:34:38.317Z,536.00
2023-04-18T06:35:38.391Z,533.00
2023-04-18T06:36:38.422Z,543.00
2023-04-18T06:37:39.446Z,579.00
2023-04-18T06:38:38.495Z,581.00
2023-04-18T06:39:38.507Z,580.00
2023-04-18T06:40:38.496Z,637.00
2023-04-18T06:41:38.541Z,657.00
2023-04-18T06:42:38.528Z,882.00
2023-04-18T06:43:38.747Z,875.00
2023-04-18T06:44:38.609Z,811.00
2023-04-18T06:45:38.837Z,791.00
2023-04-18T06:46:38.727Z,959.00
2023-04-18T06:47:38.794Z,992.00
2023-04-18T06:48:38.814Z,890.00
2023-04-18T06:49:38.850Z,880.00
2023-04-18T06:50:38.882Z,880.00
2023-04-18T06:51:38.902Z,895.00
2023-04-18T06:52:39.067Z,920.00
2023-04-18T06:53:38.950Z,922.00
2023-04-18T06:54:38.958Z,976.00
2023-04-18T06:55:38.977Z,998.00
2023-04-18T06:56:38.991Z,1011.00
2023-04-18T06:57:39.001Z,1035.00
2023-04-18T06:58:38.996Z,1078.00
2023-04-18T06:59:38.988Z,1076.00
2023-04-18T07:00:38.989Z,1097.00
2023-04-18T07:01:39.015Z,1120.00
2023-04-18T07:02:39.023Z,1171.00
2023-04-18T07:03:38.997Z,1201.00
2023-04-18T07:04:39.180Z,1188.00
2023-04-18T07:05:38.960Z,1263.00
2023-04-18T07:06:38.958Z,1256.00
2023-04-18T07:07:38.976Z,1293.00
2023-04-18T07:08:38.920Z,1300.00
2023-04-18T07:09:38.910Z,1328.00
2023-04-18T07:10:38.889Z,1336.00
2023-04-18T07:11:38.855Z,1320.00
2023-04-18T07:12:39.454Z,1342.00
2023-04-18T07:13:38.909Z,1508.00
2023-04-18T07:14:38.909Z,1488.00
2023-04-18T07:15:38.950Z,1533.00
2023-04-18T07:16:39.033Z,1500.00
2023-04-18T07:17:39.048Z,1474.00
2023-04-18T07:18:39.079Z,1458.00
2023-04-18T07:19:39.031Z,1486.00
2023-04-18T07:20:39.064Z,1489.00
2023-04-18T07:21:39.083Z,1496.00
2023-04-18T07:22:39.122Z,1491.00
2023-04-18T07:23:39.191Z,1485.00
2023-04-18T07:24:39.882Z,1491.00
2023-04-18T07:25:39.193Z,1466.00
2023-04-18T07:26:39.211Z,1472.00
2023-04-18T07:27:39.198Z,1478.00
2023-04-18T07:28:39.243Z,1470.00
2023-04-18T07:29:39.247Z,1465.00
2023-04-18T07:30:39.261Z,1473.00
2023-04-18T07:31:39.272Z,1468.00
2023-04-18T07:32:39.294Z,1459.00
2023-04-18T07:33:39.289Z,1455.00
2023-04-18T07:34:39.285Z,1462.00
2023-04-18T07:35:39.296Z,1450.00
2023-04-18T07:36:39.307Z,1457.00
2023-04-18T07:37:39.317Z,1451.00
2023-04-18T07:38:39.319Z,1436.00
2023-04-18T07:39:39.344Z,1430.00
2023-04-18T07:40:39.362Z,1427.00
2023-04-18T07:41:39.352Z,1423.00
2023-04-18T07:42:39.354Z,1428.00
2023-04-18T07:43:39.376Z,1423.00
2023-04-18T07:44:39.368Z,1414.00
2023-04-18T07:45:39.375Z,1408.00
2023-04-18T07:46:39.377Z,1410.00
2023-04-18T07:47:39.371Z,1404.00
2023-04-18T07:48:39.359Z,1402.00
2023-04-18T07:49:39.369Z,1405.00
2023-04-18T07:50:39.341Z,1396.00
2023-04-18T07:51:39.345Z,1393.00
2023-04-18T07:52:39.603Z,1399.00
2023-04-18T07:53:39.332Z,1390.00
2023-04-18T07:54:39.313Z,1387.00
2023-04-18T07:55:39.305Z,1382.00
2023-04-18T07:56:39.333Z,1381.00
2023-04-18T07:57:39.274Z,1377.00
2023-04-18T07:58:39.277Z,1366.00
2023-04-18T07:59:40.895Z,1364.00
2023-04-18T08:00:39.240Z,1356.00
2023-04-18T08:01:39.235Z,1364.00
2023-04-18T08:02:39.322Z,1357.00
2023-04-18T08:03:39.361Z,1343.00
2023-04-18T08:04:39.453Z,1341.00
2023-04-18T08:05:39.258Z,1350.00
2023-04-18T08:06:39.193Z,1334.00
2023-04-18T08:07:39.187Z,1338.00
2023-04-18T08:08:39.169Z,1325.00
2023-04-18T08:09:39.159Z,1334.00
2023-04-18T08:10:39.145Z,1326.00
2023-04-18T08:11:39.138Z,1315.00
2023-04-18T08:12:39.266Z,1315.00
2023-04-18T08:13:39.111Z,1319.00
2023-04-18T08:14:39.125Z,1157.00
2023-04-18T08:15:39.136Z,835.00
2023-04-18T08:16:39.270Z,634.00
2023-04-18T08:17:39.281Z,554.00
2023-04-18T08:18:39.239Z,486.00
2023-04-18T08:19:39.271Z,474.00
2023-04-18T08:20:39.360Z,483.00
2023-04-18T08:21:39.387Z,500.00
2023-04-18T08:22:53.641Z,529.00
2023-04-18T08:23:40.427Z,522.00
2023-04-18T08:24:39.425Z,500.00
2023-04-18T08:25:39.405Z,458.00
2023-04-18T08:26:39.414Z,473.00
2023-04-18T08:27:39.392Z,417.00
2023-04-18T08:28:39.561Z,498.00
2023-04-18T08:29:39.380Z,538.00
2023-04-18T08:30:39.373Z,557.00
2023-04-18T08:31:39.392Z,592.00
2023-04-18T08:32:39.398Z,640.00
2023-04-18T08:33:39.324Z,686.00
2023-04-18T08:34:39.333Z,764.00
2023-04-18T08:35:39.343Z,816.00
2023-04-18T08:36:39.359Z,871.00
2023-04-18T08:37:39.359Z,940.00
2023-04-18T08:38:39.352Z,971.00
2023-04-18T08:39:39.363Z,1014.00
2023-04-18T08:40:39.354Z,1025.00
2023-04-18T08:41:39.336Z,983.00
2023-04-18T08:42:39.318Z,1036.00
2023-04-18T08:43:39.322Z,1069.00
2023-04-18T08:44:39.312Z,1081.00
2023-04-18T08:45:39.354Z,1117.00
2023-04-18T08:46:39.359Z,1150.00
2023-04-18T08:47:39.382Z,1192.00
2023-04-18T08:48:39.353Z,1214.00
2023-04-18T08:49:39.364Z,1264.00
2023-04-18T08:50:39.384Z,1296.00
2023-04-18T08:51:39.423Z,1299.00
2023-04-18T08:52:39.459Z,1320.00
2023-04-18T08:53:39.495Z,1353.00
2023-04-18T08:54:40.461Z,1355.00
2023-04-18T08:55:39.441Z,1364.00
2023-04-18T08:56:39.404Z,1379.00
2023-04-18T08:57:39.454Z,1410.00
2023-04-18T08:58:39.376Z,1445.00
2023-04-18T08:59:39.333Z,1444.00
2023-04-18T09:00:39.340Z,1479.00
2023-04-18T09:01:39.357Z,1478.00
2023-04-18T09:02:39.325Z,1484.00
2023-04-18T09:03:39.385Z,1488.00
2023-04-18T09:04:39.414Z,1505.00
2023-04-18T09:05:39.333Z,1523.00
2023-04-18T09:06:39.370Z,1529.00
2023-04-18T09:07:39.419Z,1553.00
2023-04-18T09:08:39.425Z,1579.00
2023-04-18T09:09:39.454Z,1572.00
2023-04-18T09:10:39.471Z,1578.00
2023-04-18T09:11:39.504Z,1592.00
2023-04-18T09:12:39.525Z,1609.00
2023-04-18T09:13:39.538Z,1600.00
2023-04-18T09:14:39.564Z,1584.00
2023-04-18T09:15:39.614Z,1606.00
2023-04-18T09:16:39.694Z,1582.00
2023-04-18T09:17:39.684Z,1448.00
2023-04-18T09:18:39.660Z,1456.00
2023-04-18T09:19:39.675Z,1426.00
2023-04-18T09:20:39.697Z,1372.00
2023-04-18T09:21:39.725Z,1427.00
2023-04-18T09:22:40.021Z,1419.00
2023-04-18T09:23:39.775Z,1417.00
2023-04-18T09:24:39.820Z,1400.00
2023-04-18T09:25:42.601Z,1388.00
2023-04-18T09:26:39.828Z,1388.00
2023-04-18T09:27:39.804Z,1343.00
2023-04-18T09:28:39.777Z,1316.00
2023-04-18T09:29:39.764Z,1284.00
2023-04-18T09:30:39.794Z,1238.00
2023-04-18T09:31:39.714Z,1205.00
2023-04-18T09:32:39.734Z,1138.00
2023-04-18T09:33:39.643Z,1147.00
2023-04-18T09:34:39.621Z,980.00
2023-04-18T09:35:39.598Z,1046.00
2023-04-18T09:36:39.594Z,970.00
2023-04-18T09:37:39.549Z,1032.00
2023-04-18T09:38:39.517Z,1002.00
2023-04-18T09:39:39.480Z,939.00
2023-04-18T09:40:39.474Z,875.00
2023-04-18T09:41:39.451Z,737.00
2023-04-18T09:42:39.418Z,718.00
2023-04-18T09:43:39.403Z,662.00
2023-04-18T09:44:39.397Z,648.00
2023-04-18T09:45:39.350Z,622.00
2023-04-18T09:46:39.414Z,645.00
2023-04-18T09:47:39.313Z,614.00
2023-04-18T09:48:39.272Z,615.00
2023-04-18T09:49:39.255Z,612.00
2023-04-18T09:50:39.245Z,599.00
2023-04-18T09:51:39.204Z,588.00
2023-04-18T09:52:39.184Z,564.00
2023-04-18T09:53:39.167Z,554.00
2023-04-18T09:54:39.122Z,592.00
2023-04-18T09:55:39.099Z,610.00
2023-04-18T09:56:39.068Z,583.00
2023-04-18T09:57:39.044Z,581.00
2023-04-18T09:58:39.020Z,615.00
2023-04-18T09:59:39.005Z,622.00
2023-04-18T10:00:39.946Z,602.00
2023-04-18T10:01:39.012Z,628.00
2023-04-18T10:02:39.033Z,589.00
2023-04-18T10:03:38.971Z,610.00
2023-04-18T10:04:39.012Z,555.00
2023-04-18T10:05:38.920Z,547.00
2023-04-18T10:06:38.842Z,561.00
2023-04-18T10:07:39.518Z,524.00
2023-04-18T10:08:38.795Z,517.00
2023-04-18T10:09:38.799Z,507.00
2023-04-18T10:10:39.313Z,518.00
2023-04-18T10:11:38.770Z,521.00
2023-04-18T10:12:38.771Z,517.00
2023-04-18T10:13:38.743Z,500.00
2023-04-18T10:14:38.738Z,499.00
2023-04-18T10:15:38.814Z,506.00
2023-04-18T10:16:38.850Z,475.00
2023-04-18T10:17:39.206Z,489.00
2023-04-18T10:18:38.780Z,454.00
2023-04-18T10:19:38.774Z,465.00
2023-04-18T10:20:38.870Z,505.00
2023-04-18T10:21:38.807Z,511.00
2023-04-18T10:22:40.448Z,514.00
2023-04-18T10:23:38.838Z,582.00
2023-04-18T10:24:38.856Z,658.00
2023-04-18T10:25:38.874Z,744.00
2023-04-18T10:26:38.878Z,784.00
2023-04-18T10:27:38.893Z,834.00
2023-04-18T10:28:39.530Z,865.00
2023-04-18T10:29:38.900Z,899.00
2023-04-18T10:30:38.919Z,920.00
2023-04-18T10:31:39.005Z,933.00
2023-04-18T10:32:38.944Z,960.00
2023-04-18T10:33:41.024Z,954.00
2023-04-18T10:34:38.925Z,1005.00
2023-04-18T10:35:40.885Z,989.00
2023-04-18T10:36:38.962Z,990.00
2023-04-18T10:37:38.947Z,995.00
2023-04-18T10:38:39.527Z,1004.00
2023-04-18T10:39:39.459Z,1023.00
2023-04-18T10:40:38.968Z,1030.00
2023-04-18T10:41:38.975Z,1044.00
2023-04-18T10:42:38.996Z,1066.00
2023-04-18T10:43:38.985Z,1068.00
2023-04-18T10:44:38.988Z,1079.00
2023-04-18T10:45:39.001Z,1098.00
2023-04-18T10:46:39.042Z,1092.00
2023-04-18T10:47:39.065Z,1109.00
2023-04-18T10:48:39.057Z,1118.00
2023-04-18T10:49:39.023Z,1124.00
2023-04-18T10:50:39.007Z,1122.00
2023-04-18T10:51:39.010Z,1131.00
2023-04-18T10:52:39.555Z,1139.00
2023-04-18T10:53:39.046Z,1156.00
2023-04-18T10:54:39.128Z,1163.00
2023-04-18T10:55:39.036Z,1166.00
2023-04-18T10:56:39.037Z,1169.00
2023-04-18T10:57:39.032Z,1176.00
2023-04-18T10:58:39.027Z,1176.00
2023-04-18T10:59:39.058Z,1199.00
2023-04-18T11:00:39.095Z,1204.00
2023-04-18T11:01:39.119Z,1218.00
2023-04-18T11:02:39.146Z,1211.00
2023-04-18T11:03:39.144Z,1217.00
2023-04-18T11:04:40.041Z,1218.00
2023-04-18T11:05:39.016Z,1222.00
2023-04-18T11:06:38.987Z,1224.00
2023-04-18T11:07:38.980Z,1234.00
2023-04-18T11:08:38.927Z,1237.00
2023-04-18T11:09:38.923Z,1255.00
2023-04-18T11:10:38.906Z,1268.00
2023-04-18T11:11:38.934Z,1274.00
2023-04-18T11:12:38.859Z,1276.00
2023-04-18T11:13:38.826Z,1279.00
2023-04-18T11:14:38.811Z,1283.00
2023-04-18T11:15:38.812Z,1289.00
2023-04-18T11:16:38.868Z,1306.00
2023-04-18T11:17:38.790Z,1315.00
2023-04-18T11:18:38.722Z,1308.00
2023-04-18T11:19:38.713Z,1314.00
2023-04-18T11:20:38.692Z,1318.00
2023-04-18T11:21:38.660Z,1325.00
2023-04-18T11:22:38.656Z,1329.00
2023-04-18T11:23:38.624Z,1326.00
2023-04-18T11:24:38.627Z,1337.00
2023-04-18T11:25:38.598Z,1328.00
2023-04-18T11:26:38.610Z,1340.00
2023-04-18T11:27:38.626Z,1340.00
2023-04-18T11:28:38.641Z,1341.00
2023-04-18T11:29:38.653Z,1344.00
2023-04-18T11:30:38.672Z,1348.00
2023-04-18T11:31:38.713Z,1356.00
2023-04-18T11:32:38.722Z,1359.00
2023-04-18T11:33:38.719Z,1369.00
2023-04-18T11:34:38.734Z,1357.00
2023-04-18T11:35:38.764Z,1379.00
2023-04-18T11:36:38.798Z,1387.00
2023-04-18T11:37:38.794Z,1364.00
2023-04-18T11:38:38.791Z,1375.00
2023-04-18T11:39:38.806Z,1387.00
2023-04-18T11:40:38.872Z,1385.00
2023-04-18T11:41:38.824Z,1390.00
2023-04-18T11:42:38.864Z,1401.00
2023-04-18T11:43:38.845Z,1396.00
2023-04-18T11:44:38.853Z,1404.00
2023-04-18T11:45:38.902Z,1402.00
2023-04-18T11:46:38.911Z,1396.00
2023-04-18T11:47:38.942Z,1394.00
2023-04-18T11:48:38.913Z,1403.00
2023-04-18T11:49:38.952Z,1411.00
2023-04-18T11:50:38.957Z,1407.00
2023-04-18T11:51:39.024Z,1399.00
2023-04-18T11:52:39.003Z,1387.00
2023-04-18T11:53:39.030Z,1406.00
2023-04-18T11:54:39.062Z,1398.00
2023-04-18T11:55:39.073Z,1400.00
2023-04-18T11:56:39.141Z,1407.00
2023-04-18T11:57:39.126Z,1390.00
2023-04-18T11:58:39.166Z,1393.00
2023-04-18T11:59:39.208Z,1403.00
2023-04-18T12:00:39.209Z,1413.00
2023-04-18T12:01:39.216Z,1403.00
2023-04-18T12:02:39.358Z,1414.00
2023-04-18T12:03:39.437Z,1406.00
2023-04-18T12:04:39.431Z,1403.00
2023-04-18T12:05:39.498Z,1411.00
2023-04-18T12:06:39.359Z,1410.00
2023-04-18T12:07:39.367Z,1424.00
2023-04-18T12:08:41.000Z,1402.00
2023-04-18T12:09:39.377Z,1402.00
2023-04-18T12:10:39.413Z,1393.00
2023-04-18T12:11:39.414Z,1409.00
2023-04-18T12:12:39.452Z,1412.00
2023-04-18T12:13:39.458Z,1399.00
2023-04-18T12:14:39.477Z,1420.00
2023-04-18T12:15:39.613Z,1409.00
2023-04-18T12:16:39.492Z,1411.00
2023-04-18T12:17:39.582Z,1411.00
2023-04-18T12:18:39.551Z,1410.00
2023-04-18T12:19:39.569Z,1401.00
2023-04-18T12:20:39.646Z,1411.00